Thunder radar more information blitzortung!


Radar de pluja more information rain snow radar


Visita la nostra xarxa de llocs de meteo:

Template documentation
and downloads

And another site



No particular awareness of the weather is required.    There are no Weather-warnings

Pagina Historial Weather Underground text

Diari Resum Agost 2, 2017 Unitats:  Mètric    Imperial   Tant
« Previous Dia
SegĂźent Dia »
Diari Setmana Mensual Anual Personalitzada
  Maxima: Minima: Media:
Temperatura: 35.0 °C 21.5 °C 30 °C
Punt de rosada: 21.1 °C 15.4 °C 17.5 °C
Humitat: 84 % 37 % 48 %
Wind Speed: 25.9 km/h 0.0 km/h 6.7 km/h
RĂ fegues de vent: 25.9 km/h - -
Vent:- - SE
Pression baro: 1017.8 hPa 1012.8 hPa -
Precipitacions: 0.0 mm    
Historical Graphs
 
 
Dades de taula per Agost 2, 2017
Temps Temperatura Punt de rosada Pression baro Vent Wind Speed RĂ fegues de vent Humitat Rainfall Rate (Hourly)
00:02 24.0 °C 21.1 °C 1016.8 hPa SW 3.7 km/h 3.7 km/h 84 % 0.0 mm
00:05 22.0 °C 19.0 °C 1015.8 hPa WNW 1.6 km/h 3.2 km/h 83 % 0.0 mm
00:07 23.9 °C 21.1 °C 1016.8 hPa WSW 2.3 km/h 2.3 km/h 84 % 0.0 mm
00:15 21.7 °C 17.9 °C 1015.8 hPa NNW 1.6 km/h 3.2 km/h 79 % 0.0 mm
00:25 22.0 °C 17.6 °C 1015.8 hPa Calm   3.2 km/h 76 % 0.0 mm
00:35 21.9 °C 17.5 °C 1014.8 hPa NE 1.6 km/h 1.6 km/h 76 % 0.0 mm
00:45 21.7 °C 17.3 °C 1014.8 hPa NE 4.8 km/h 4.8 km/h 76 % 0.0 mm
00:55 21.6 °C 17.4 °C 1015.8 hPa NNE 3.2 km/h 6.4 km/h 77 % 0.0 mm
01:05 21.8 °C 17.2 °C 1015.8 hPa NNE 3.2 km/h 6.4 km/h 75 % 0.0 mm
01:15 21.6 °C 17.0 °C 1015.8 hPa NNE 1.6 km/h 1.6 km/h 75 % 0.0 mm
01:25 21.5 °C 16.7 °C 1015.8 hPa NNE 3.2 km/h 3.2 km/h 74 % 0.0 mm
01:35 21.5 °C 16.4 °C 1015.8 hPa NNE 1.6 km/h 6.4 km/h 73 % 0.0 mm
01:45 21.7 °C 16.4 °C 1015.8 hPa NE 3.2 km/h 6.4 km/h 72 % 0.0 mm
01:55 21.7 °C 16.2 °C 1015.8 hPa NE 1.6 km/h 4.8 km/h 71 % 0.0 mm
02:05 21.6 °C 16.1 °C 1015.8 hPa NE 3.2 km/h 4.8 km/h 71 % 0.0 mm
02:15 21.5 °C 16.0 °C 1015.8 hPa ENE 1.6 km/h 3.2 km/h 71 % 0.0 mm
02:25 21.6 °C 16.1 °C 1015.8 hPa NE 1.6 km/h 3.2 km/h 71 % 0.0 mm
02:35 21.7 °C 16.2 °C 1015.8 hPa NNE 1.6 km/h 4.8 km/h 71 % 0.0 mm
02:45 22.0 °C 16.5 °C 1015.8 hPa North 1.6 km/h 3.2 km/h 71 % 0.0 mm
02:55 22.0 °C 16.5 °C 1015.8 hPa NNW 1.6 km/h 3.2 km/h 71 % 0.0 mm
03:05 22.4 °C 16.9 °C 1016.8 hPa Calm   3.2 km/h 71 % 0.0 mm
03:15 23.1 °C 17.3 °C 1016.8 hPa NW 1.6 km/h 3.2 km/h 70 % 0.0 mm
03:25 23.0 °C 17.2 °C 1015.8 hPa SW 3.2 km/h 3.2 km/h 70 % 0.0 mm
03:35 23.2 °C 17.4 °C 1016.8 hPa WSW 3.2 km/h 3.2 km/h 70 % 0.0 mm
03:45 23.6 °C 17.8 °C 1016.8 hPa Calm   4.8 km/h 70 % 0.0 mm
03:55 24.5 °C 18.2 °C 1016.8 hPa SSW 1.6 km/h 3.2 km/h 68 % 0.0 mm
04:05 24.9 °C 18.6 °C 1016.8 hPa SW 1.6 km/h 3.2 km/h 68 % 0.0 mm
04:15 25.6 °C 18.6 °C 1016.8 hPa SW 1.6 km/h 3.2 km/h 65 % 0.0 mm
04:25 26.1 °C 18.5 °C 1017.8 hPa Calm   3.2 km/h 63 % 0.0 mm
04:35 26.3 °C 18.4 °C 1016.8 hPa East 1.6 km/h 4.8 km/h 62 % 0.0 mm
04:45 26.7 °C 18.6 °C 1016.8 hPa ESE 3.2 km/h 4.8 km/h 61 % 0.0 mm
04:55 27.4 °C 18.9 °C 1017.8 hPa East 3.2 km/h 4.8 km/h 60 % 0.0 mm
05:05 27.9 °C 18.9 °C 1017.8 hPa NE 3.2 km/h 3.2 km/h 58 % 0.0 mm
05:15 28.9 °C 19.2 °C 1017.8 hPa NNE 1.6 km/h 3.2 km/h 56 % 0.0 mm
05:25 29.2 °C 18.9 °C 1017.8 hPa NE 3.2 km/h 6.4 km/h 54 % 0.0 mm
05:35 29.4 °C 18.5 °C 1016.8 hPa NE 3.2 km/h 8.0 km/h 52 % 0.0 mm
05:45 30.1 °C 18.8 °C 1016.8 hPa ENE 4.8 km/h 4.8 km/h 51 % 0.0 mm
10:47 30.0 °C 18.8 °C 1016.8 hPa ESE 7.4 km/h 7.4 km/h 51 % 0.0 mm
10:52 29.8 °C 18.3 °C 1016.8 hPa East 8.7 km/h 8.7 km/h 50 % 0.0 mm
10:57 29.9 °C 18.3 °C 1016.8 hPa East 7.4 km/h 7.4 km/h 50 % 0.0 mm
11:02 30.0 °C 18.4 °C 1016.8 hPa East 9.3 km/h 9.3 km/h 50 % 0.0 mm
11:07 30.0 °C 18.4 °C 1015.8 hPa ENE 9.3 km/h 9.3 km/h 50 % 0.0 mm
11:12 30.0 °C 18.4 °C 1015.8 hPa NNE 11.1 km/h 11.1 km/h 50 % 0.0 mm
11:17 30.7 °C 19.1 °C 1015.8 hPa NE 5.6 km/h 5.6 km/h 50 % 0.0 mm
11:22 30.8 °C 18.5 °C 1015.8 hPa ESE 11.9 km/h 11.9 km/h 48 % 0.0 mm
11:27 30.7 °C 18.4 °C 1015.8 hPa ENE 13.0 km/h 13.0 km/h 48 % 0.0 mm
11:32 31.1 °C 18.8 °C 1015.8 hPa ENE 6.4 km/h 6.4 km/h 48 % 0.0 mm
11:37 31.2 °C 18.6 °C 1015.8 hPa NNE 9.5 km/h 9.5 km/h 47 % 0.0 mm
11:42 31.3 °C 18.7 °C 1015.8 hPa SSE 11.1 km/h 11.1 km/h 47 % 0.0 mm
11:47 31.3 °C 18.3 °C 1015.8 hPa SE 13.0 km/h 13.0 km/h 46 % 0.0 mm
11:52 31.7 °C 18.7 °C 1015.8 hPa ESE 9.5 km/h 9.5 km/h 46 % 0.0 mm
12:01 32.5 °C 19.4 °C 1015.8 hPa East 9.0 km/h 9.0 km/h 46 % 0.0 mm
12:06 32.1 °C 19.0 °C 1015.8 hPa East 9.3 km/h 9.3 km/h 46 % 0.0 mm
12:11 32.6 °C 19.5 °C 1015.8 hPa ESE 5.6 km/h 5.6 km/h 46 % 0.0 mm
12:16 32.7 °C 19.2 °C 1015.8 hPa ENE 5.6 km/h 5.6 km/h 45 % 0.0 mm
12:21 32.7 °C 19.2 °C 1015.8 hPa ENE 9.3 km/h 9.3 km/h 45 % 0.0 mm
12:26 32.9 °C 19.4 °C 1015.8 hPa ENE 5.6 km/h 5.6 km/h 45 % 0.0 mm
12:31 33.1 °C 18.8 °C 1015.8 hPa ENE 18.5 km/h 18.5 km/h 43 % 0.0 mm
12:36 33.1 °C 18.8 °C 1015.8 hPa ENE 7.4 km/h 7.4 km/h 43 % 0.0 mm
12:41 33.1 °C 18.4 °C 1015.8 hPa ENE 13.0 km/h 13.0 km/h 42 % 0.0 mm
12:46 33.3 °C 18.7 °C 1015.8 hPa ESE 9.3 km/h 9.3 km/h 42 % 0.0 mm
12:51 33.9 °C 19.2 °C 1015.8 hPa South 7.4 km/h 7.4 km/h 42 % 0.0 mm
12:56 33.6 °C 18.1 °C 1015.8 hPa ENE 13.0 km/h 13.0 km/h 40 % 0.0 mm
13:01 33.7 °C 18.6 °C 1015.8 hPa ESE 5.3 km/h 5.3 km/h 41 % 0.0 mm
13:06 34.1 °C 18.6 °C 1015.8 hPa ESE 9.3 km/h 9.3 km/h 40 % 0.0 mm
13:11 34.1 °C 18.6 °C 1015.8 hPa East 13.0 km/h 13.0 km/h 40 % 0.0 mm
13:16 34.4 °C 18.8 °C 1015.8 hPa North 10.0 km/h 10.0 km/h 40 % 0.0 mm
13:21 34.3 °C 18.3 °C 1015.8 hPa SE 9.3 km/h 9.3 km/h 39 % 0.0 mm
13:26 34.6 °C 18.6 °C 1015.8 hPa ESE 14.8 km/h 14.8 km/h 39 % 0.0 mm
13:31 34.4 °C 18.8 °C 1015.8 hPa ESE 14.8 km/h 14.8 km/h 40 % 0.0 mm
13:36 34.4 °C 18.4 °C 1014.8 hPa SE 13.0 km/h 13.0 km/h 39 % 0.0 mm
13:41 34.6 °C 19.1 °C 1014.8 hPa ESE 11.1 km/h 11.1 km/h 40 % 0.0 mm
13:46 34.5 °C 18.6 °C 1014.8 hPa ENE 13.0 km/h 13.0 km/h 39 % 0.0 mm
13:51 34.1 °C 17.8 °C 1015.8 hPa SE 14.8 km/h 14.8 km/h 38 % 0.0 mm
13:56 33.7 °C 17.8 °C 1015.8 hPa East 16.7 km/h 16.7 km/h 39 % 0.0 mm
14:01 34.0 °C 18.1 °C 1015.8 hPa East 14.8 km/h 14.8 km/h 39 % 0.0 mm
14:06 34.4 °C 18.4 °C 1015.8 hPa SW 5.6 km/h 5.6 km/h 39 % 0.0 mm
14:11 34.3 °C 18.3 °C 1015.8 hPa SSE 11.1 km/h 11.1 km/h 39 % 0.0 mm
14:16 33.9 °C 18.0 °C 1015.8 hPa East 18.5 km/h 18.5 km/h 39 % 0.0 mm
14:21 34.2 °C 18.3 °C 1015.8 hPa SE 9.3 km/h 9.3 km/h 39 % 0.0 mm
14:26 33.6 °C 17.3 °C 1015.8 hPa NNW 11.1 km/h 11.1 km/h 38 % 0.0 mm
14:31 33.3 °C 17.4 °C 1015.8 hPa ENE 16.1 km/h 16.1 km/h 39 % 0.0 mm
14:36 33.1 °C 17.3 °C 1015.8 hPa ESE 24.1 km/h 24.1 km/h 39 % 0.0 mm
14:41 33.2 °C 17.4 °C 1015.8 hPa ESE 17.5 km/h 17.5 km/h 39 % 0.0 mm
14:46 33.2 °C 17.4 °C 1015.8 hPa SE 9.3 km/h 9.3 km/h 39 % 0.0 mm
14:51 33.1 °C 17.3 °C 1015.8 hPa ESE 14.0 km/h 14.0 km/h 39 % 0.0 mm
14:56 32.9 °C 17.5 °C 1015.8 hPa East 14.8 km/h 14.8 km/h 40 % 0.0 mm
15:01 32.9 °C 17.9 °C 1015.8 hPa East 14.8 km/h 14.8 km/h 41 % 0.0 mm
15:06 32.7 °C 17.7 °C 1015.8 hPa ESE 14.8 km/h 14.8 km/h 41 % 0.0 mm
15:11 32.8 °C 17.8 °C 1015.8 hPa East 13.0 km/h 13.0 km/h 41 % 0.0 mm
15:16 32.7 °C 18.1 °C 1015.8 hPa NNE 25.9 km/h 25.9 km/h 42 % 0.0 mm
15:21 32.2 °C 17.7 °C 1015.8 hPa ESE 13.0 km/h 13.0 km/h 42 % 0.0 mm
15:26 32.3 °C 17.8 °C 1015.8 hPa ESE 9.3 km/h 9.3 km/h 42 % 0.0 mm
15:31 32.3 °C 17.8 °C 1015.8 hPa East 11.1 km/h 11.9 km/h 42 % 0.0 mm
15:36 32.4 °C 18.2 °C 1015.8 hPa ESE 9.3 km/h 9.3 km/h 43 % 0.0 mm
15:41 32.6 °C 18.4 °C 1015.8 hPa ESE 16.7 km/h 16.7 km/h 43 % 0.0 mm
15:46 33.2 °C 18.6 °C 1015.8 hPa ESE 15.1 km/h 15.1 km/h 42 % 0.0 mm
15:51 33.4 °C 18.7 °C 1015.8 hPa ESE 13.7 km/h 13.7 km/h 42 % 0.0 mm
15:56 33.6 °C 18.6 °C 1015.8 hPa SE 14.8 km/h 14.8 km/h 41 % 0.0 mm
16:01 33.9 °C 18.8 °C 1015.8 hPa ESE 11.4 km/h 11.4 km/h 41 % 0.0 mm
16:06 34.3 °C 19.2 °C 1015.8 hPa ESE 16.4 km/h 16.4 km/h 41 % 0.0 mm
16:11 33.9 °C 19.2 °C 1015.8 hPa NE 14.8 km/h 14.8 km/h 42 % 0.0 mm
16:16 33.5 °C 19.2 °C 1015.8 hPa ENE 13.0 km/h 13.0 km/h 43 % 0.0 mm
16:21 33.2 °C 18.9 °C 1015.8 hPa East 14.8 km/h 14.8 km/h 43 % 0.0 mm
16:26 33.2 °C 19.3 °C 1015.8 hPa East 18.5 km/h 18.5 km/h 44 % 0.0 mm
16:31 32.9 °C 19.4 °C 1015.8 hPa ESE 16.7 km/h 16.7 km/h 45 % 0.0 mm
16:36 33.0 °C 19.5 °C 1015.8 hPa ESE 16.7 km/h 16.7 km/h 45 % 0.0 mm
16:41 32.5 °C 19.7 °C 1015.8 hPa ESE 11.1 km/h 11.1 km/h 47 % 0.0 mm
16:46 32.4 °C 19.7 °C 1015.8 hPa SE 14.5 km/h 14.5 km/h 47 % 0.0 mm
16:51 32.0 °C 19.6 °C 1015.8 hPa ENE 13.0 km/h 13.0 km/h 48 % 0.0 mm
16:56 31.6 °C 19.6 °C 1015.8 hPa ENE 16.7 km/h 16.7 km/h 49 % 0.0 mm
17:01 31.9 °C 20.2 °C 1015.8 hPa SE 9.7 km/h 9.7 km/h 50 % 0.0 mm
17:06 31.9 °C 20.2 °C 1015.8 hPa East 11.1 km/h 11.1 km/h 50 % 0.0 mm
17:11 32.1 °C 20.4 °C 1015.8 hPa ENE 9.3 km/h 9.3 km/h 50 % 0.0 mm
17:16 32.5 °C 20.4 °C 1015.8 hPa NE 7.4 km/h 7.4 km/h 49 % 0.0 mm
17:21 32.7 °C 20.3 °C 1015.8 hPa SE 7.4 km/h 7.4 km/h 48 % 0.0 mm
17:26 32.8 °C 20.0 °C 1015.8 hPa ESE 11.1 km/h 11.1 km/h 47 % 0.0 mm
17:31 32.7 °C 19.9 °C 1015.8 hPa East 7.4 km/h 7.4 km/h 47 % 0.0 mm
17:36 33.0 °C 19.1 °C 1015.8 hPa SSE 9.3 km/h 9.3 km/h 44 % 0.0 mm
17:39 33.4 °C 19.8 °C 1015.8 hPa ESE 9.5 km/h 9.5 km/h 45 % 0.0 mm
17:44 33.5 °C 19.6 °C 1015.8 hPa West 5.6 km/h 5.6 km/h 44 % 0.0 mm
17:49 34.5 °C 19.7 °C 1015.8 hPa WSW 11.4 km/h 11.4 km/h 42 % 0.0 mm
17:54 34.3 °C 19.2 °C 1015.8 hPa WSW 18.5 km/h 18.5 km/h 41 % 0.0 mm
17:59 34.6 °C 19.1 °C 1015.8 hPa SW 11.1 km/h 11.1 km/h 40 % 0.0 mm
18:04 35.0 °C 19.0 °C 1014.8 hPa WSW 9.3 km/h 9.3 km/h 39 % 0.0 mm
18:09 35.0 °C 18.6 °C 1014.8 hPa SW 14.8 km/h 14.8 km/h 38 % 0.0 mm
18:14 35.0 °C 18.1 °C 1014.8 hPa SW 13.0 km/h 13.0 km/h 37 % 0.0 mm
18:19 34.3 °C 17.5 °C 1016.8 hPa SW 18.5 km/h 18.5 km/h 37 % 0.0 mm
18:24 33.8 °C 17.1 °C 1016.8 hPa SSW 22.5 km/h 22.5 km/h 37 % 0.0 mm
18:29 33.8 °C 17.1 °C 1016.8 hPa SW 20.4 km/h 20.4 km/h 37 % 0.0 mm
18:34 33.9 °C 17.2 °C 1015.8 hPa South 13.0 km/h 13.0 km/h 37 % 0.0 mm
18:39 33.9 °C 17.6 °C 1015.8 hPa SW 16.7 km/h 16.7 km/h 38 % 0.0 mm
18:44 34.1 °C 17.8 °C 1015.8 hPa SW 5.6 km/h 5.6 km/h 38 % 0.0 mm
18:49 34.2 °C 17.8 °C 1015.8 hPa SSW 9.3 km/h 9.3 km/h 38 % 0.0 mm
18:54 34.0 °C 17.7 °C 1015.8 hPa SSE 5.6 km/h 5.6 km/h 38 % 0.0 mm
18:59 34.0 °C 17.7 °C 1015.8 hPa SSW 9.3 km/h 9.3 km/h 38 % 0.0 mm
19:04 33.5 °C 17.7 °C 1015.8 hPa WNW 9.3 km/h 9.3 km/h 39 % 0.0 mm
19:09 33.1 °C 17.3 °C 1015.8 hPa SW 5.8 km/h 5.8 km/h 39 % 0.0 mm
19:14 33.0 °C 17.2 °C 1015.8 hPa SW 4.7 km/h 4.7 km/h 39 % 0.0 mm
19:15 27.6 °C 15.9 °C 1015.8 hPa Calm     49 % 0.0 mm
19:19 32.8 °C 17.4 °C 1014.8 hPa WSW 4.7 km/h 4.7 km/h 40 % 0.0 mm
19:24 32.7 °C 17.3 °C 1014.8 hPa NNE 1.9 km/h   40 % 0.0 mm
19:25 27.4 °C 15.7 °C 1015.8 hPa SW 1.6 km/h 3.2 km/h 49 % 0.0 mm
19:29 32.5 °C 17.2 °C 1014.8 hPa NNE 3.7 km/h 3.7 km/h 40 % 0.0 mm
19:34 32.3 °C 17.0 °C 1013.8 hPa NNW 1.9 km/h 1.9 km/h 40 % 0.0 mm
19:35 27.4 °C 15.7 °C 1015.8 hPa Calm   1.6 km/h 49 % 0.0 mm
19:39 32.3 °C 17.0 °C 1013.8 hPa SSE 5.6 km/h 5.6 km/h 40 % 0.0 mm
19:44 32.3 °C 17.4 °C 1013.8 hPa ENE 7.4 km/h 7.4 km/h 41 % 0.0 mm
19:45 27.4 °C 15.7 °C 1015.8 hPa Calm     49 % 0.0 mm
19:49 32.3 °C 17.4 °C 1013.8 hPa ENE 9.3 km/h 9.3 km/h 41 % 0.0 mm
19:54 32.3 °C 17.4 °C 1013.8 hPa ENE 10.3 km/h 10.3 km/h 41 % 0.0 mm
19:55 27.5 °C 15.8 °C 1015.8 hPa SW 1.6 km/h 3.2 km/h 49 % 0.0 mm
19:59 32.3 °C 17.0 °C 1013.8 hPa SE 7.4 km/h 7.4 km/h 40 % 0.0 mm
20:04 32.2 °C 16.9 °C 1012.8 hPa ENE 5.6 km/h 5.6 km/h 40 % 0.0 mm
20:05 27.2 °C 15.9 °C 1015.8 hPa WSW 3.2 km/h 3.2 km/h 50 % 0.0 mm
20:09 32.2 °C 16.9 °C 1012.8 hPa NNE 7.4 km/h 7.4 km/h 40 % 0.0 mm
20:14 32.1 °C 16.4 °C 1012.8 hPa ENE 7.4 km/h 7.4 km/h 39 % 0.0 mm
20:15 27.2 °C 15.6 °C 1015.8 hPa WSW 1.6 km/h 3.2 km/h 49 % 0.0 mm
20:19 32.1 °C 16.4 °C 1013.8 hPa East 3.7 km/h 3.7 km/h 39 % 0.0 mm
20:24 32.1 °C 16.4 °C 1013.8 hPa ESE 9.5 km/h 9.5 km/h 39 % 0.0 mm
20:25 27.4 °C 15.7 °C 1015.8 hPa Calm   3.2 km/h 49 % 0.0 mm
20:29 32.1 °C 16.4 °C 1013.8 hPa ESE 10.0 km/h 10.0 km/h 39 % 0.0 mm
20:34 32.0 °C 16.3 °C 1013.8 hPa ESE 9.3 km/h 9.3 km/h 39 % 0.0 mm
20:35 27.2 °C 15.9 °C 1015.8 hPa WSW 1.6 km/h 3.2 km/h 50 % 0.0 mm
20:39 31.9 °C 16.6 °C 1013.8 hPa East 5.6 km/h 5.6 km/h 40 % 0.0 mm
20:44 31.8 °C 16.6 °C 1013.8 hPa South 5.6 km/h 5.6 km/h 40 % 0.0 mm
20:45 26.6 °C 15.6 °C 1015.8 hPa WSW 1.6 km/h 3.2 km/h 51 % 0.0 mm
20:49 31.7 °C 16.4 °C 1013.8 hPa East 7.4 km/h 7.4 km/h 40 % 0.0 mm
20:54 31.6 °C 16.3 °C 1013.8 hPa ESE 5.6 km/h 5.6 km/h 40 % 0.0 mm
20:55 26.5 °C 15.6 °C 1015.8 hPa WSW 3.2 km/h 3.2 km/h 51 % 0.0 mm
20:59 31.5 °C 16.7 °C 1013.8 hPa South 3.7 km/h 3.7 km/h 41 % 0.0 mm
21:04 31.4 °C 16.6 °C 1014.8 hPa SW 3.7 km/h 3.7 km/h 41 % 0.0 mm
21:05 26.3 °C 15.7 °C 1014.8 hPa Calm   3.2 km/h 52 % 0.0 mm
21:09 31.3 °C 16.5 °C 1014.8 hPa SSE 7.4 km/h 7.4 km/h 41 % 0.0 mm
21:14 31.2 °C 16.4 °C 1014.8 hPa ENE 2.6 km/h 2.6 km/h 41 % 0.0 mm
21:15 26.5 °C 15.8 °C 1014.8 hPa WSW 1.6 km/h 3.2 km/h 52 % 0.0 mm
21:19 31.1 °C 16.3 °C 1014.8 hPa ENE 3.7 km/h 3.7 km/h 41 % 0.0 mm
21:24 31.0 °C 16.2 °C 1014.8 hPa ENE 2.3 km/h   41 % 0.0 mm
21:25 26.2 °C 15.6 °C 1014.8 hPa SW 1.6 km/h 4.8 km/h 52 % 0.0 mm
21:29 30.8 °C 16.4 °C 1014.8 hPa East 2.3 km/h 2.3 km/h 42 % 0.0 mm
21:34 30.7 °C 16.3 °C 1014.8 hPa ENE 3.7 km/h 3.7 km/h 42 % 0.0 mm
21:35 26.7 °C 16.0 °C 1014.8 hPa WSW 1.6 km/h 3.2 km/h 52 % 0.0 mm
21:39 30.6 °C 16.6 °C 1014.8 hPa Calm     43 % 0.0 mm
21:44 30.5 °C 16.5 °C 1014.8 hPa Calm     43 % 0.0 mm
21:45 26.6 °C 15.9 °C 1014.8 hPa WSW 1.6 km/h 3.2 km/h 52 % 0.0 mm
21:49 30.4 °C 16.4 °C 1014.8 hPa Calm     43 % 0.0 mm
21:54 30.3 °C 16.3 °C 1014.8 hPa Calm     43 % 0.0 mm
21:55 26.6 °C 15.9 °C 1014.8 hPa Calm   3.2 km/h 52 % 0.0 mm
21:59 30.3 °C 16.3 °C 1014.8 hPa SE 1.9 km/h 1.9 km/h 43 % 0.0 mm
22:04 30.2 °C 16.2 °C 1014.8 hPa ENE 1.9 km/h   43 % 0.0 mm
22:05 26.4 °C 15.8 °C 1014.8 hPa SW 3.2 km/h 4.8 km/h 52 % 0.0 mm
22:06 30.1 °C 16.2 °C 1014.8 hPa ENE 1.9 km/h   43 % 0.0 mm
22:11 30.0 °C 16.1 °C 1014.8 hPa Calm     43 % 0.0 mm
22:15 26.2 °C 15.9 °C 1014.8 hPa Calm   3.2 km/h 53 % 0.0 mm
22:16 30.0 °C 16.1 °C 1014.8 hPa Calm     43 % 0.0 mm
22:21 29.9 °C 16.3 °C 1014.8 hPa Calm     44 % 0.0 mm
22:25 26.0 °C 15.7 °C 1014.8 hPa WSW 1.6 km/h 3.2 km/h 53 % 0.0 mm
22:26 29.8 °C 16.2 °C 1014.8 hPa NW 2.6 km/h 2.6 km/h 44 % 0.0 mm
22:31 29.7 °C 16.2 °C 1014.8 hPa NW 1.4 km/h   44 % 0.0 mm
22:35 25.9 °C 15.6 °C 1015.8 hPa Calm   3.2 km/h 53 % 0.0 mm
22:36 29.5 °C 15.9 °C 1015.8 hPa Calm     44 % 0.0 mm
22:41 29.4 °C 15.9 °C 1015.8 hPa NW 2.3 km/h   44 % 0.0 mm
22:45 26.0 °C 15.9 °C 1015.8 hPa Calm     54 % 0.0 mm
22:46 29.3 °C 15.8 °C 1015.8 hPa Calm     44 % 0.0 mm
22:51 29.3 °C 15.8 °C 1016.8 hPa WNW 2.6 km/h   44 % 0.0 mm
22:55 26.0 °C 15.7 °C 1014.8 hPa Calm   1.6 km/h 53 % 0.0 mm
22:56 29.2 °C 15.7 °C 1016.8 hPa West 3.7 km/h 3.7 km/h 44 % 0.0 mm
23:01 29.2 °C 16.1 °C 1016.8 hPa Calm     45 % 0.0 mm
23:05 25.8 °C 15.8 °C 1014.8 hPa NNW 1.6 km/h 3.2 km/h 54 % 0.0 mm
23:06 29.0 °C 15.9 °C 1015.8 hPa West 1.9 km/h   45 % 0.0 mm
23:11 29.0 °C 15.9 °C 1015.8 hPa NW 1.9 km/h   45 % 0.0 mm
23:15 25.6 °C 15.6 °C 1014.8 hPa North 1.6 km/h 3.2 km/h 54 % 0.0 mm
23:16 28.9 °C 16.1 °C 1015.8 hPa NNW 1.9 km/h   46 % 0.0 mm
23:21 28.7 °C 15.9 °C 1015.8 hPa ENE 1.9 km/h 1.9 km/h 46 % 0.0 mm
23:25 25.5 °C 15.5 °C 1014.8 hPa Calm   3.2 km/h 54 % 0.0 mm
23:26 28.5 °C 15.8 °C 1015.8 hPa SW 2.3 km/h 2.3 km/h 46 % 0.0 mm
23:31 28.2 °C 15.8 °C 1015.8 hPa Calm     47 % 0.0 mm
23:35 25.4 °C 15.4 °C 1014.8 hPa Calm   1.6 km/h 54 % 0.0 mm
23:36 28.0 °C 15.6 °C 1015.8 hPa Calm     47 % 0.0 mm
23:41 27.8 °C 15.4 °C 1015.8 hPa Calm     47 % 0.0 mm
23:45 25.3 °C 15.6 °C 1014.8 hPa Calm     55 % 0.0 mm
23:46 27.7 °C 15.7 °C 1015.8 hPa Calm     48 % 0.0 mm
23:51 27.6 °C 15.6 °C 1014.8 hPa Calm     48 % 0.0 mm
23:55 25.1 °C 15.4 °C 1014.8 hPa NNE 1.6 km/h 1.6 km/h 55 % 0.0 mm
23:56 27.6 °C 15.6 °C 1014.8 hPa Calm     48 % 0.0 mm
Meteo Sesrovires
Elogis d' Weather Underground - 3.75 mb

Guio original per  Jim McMurry - jmcmurry@mwt.net Adaptat per a la plantilla per  Wim van der Kuil - Leuven-Template.eu

Trobareu la nostra informacio del temps tambe a:

Weather Underground

AWEKAS